Aérodrome :
LOGIN :

S'inscrire | Disclaimer

   EN    FR    IT 

 










Légende :    VFR   VFR Marginal   IFR   IFR Intensif   IFR Très Intensif
Visi : 
Plafond : 
>= 8 km
>= 3000ft
5 à 8 km
1000 à 3000 ft
1500m à 5 km
500 à 1000 ft
800 à 1500m
200 à 500 ft
< 800m
< 200 ft
Symboles :   Orages  Brouillard  Fortes neiges  Fortes précipitations  Vent > 20 kt
SIGMETs :   Divers  Orages  Givrage  Turbulence  Onde Orograph.  Cendres Volcan.







- Altitude de l'aérodrome : 1455 ft


ETIH - Hohenfels Army Air Field

DERNIER METAR :
  • 200343Z AUTO 00000KT 9999 BKN010 OVC023 M04/M04 A2996 RMK AO2 CIG 010V023 BKN V SCT SLP176 $

METARs EXPIRÉS :
  • 200256Z AUTO 00000KT 9000 BR OVC023 M04/M04 A2996 RMK AO2 SLP173 T10401041 56006 $
  • 200156Z AUTO 00000KT 9999 SCT006 OVC025 M04/M04 A2996 RMK AO2 CIG 006V025 SLP176 T10431044 $
  • 200151Z AUTO 32003KT 9999 SCT006 OVC025 M04/M04 A2996 RMK AO2 CIG 006V025 SLP176 $
  • 200056Z AUTO 00000KT 9999 OVC026 M05/M05 A2996 RMK AO2 SLP176 T10521053 $

Prévision TAF périmée.
Pas de NOTAMs connus pour ce terrain.



MET'MAP, la Météo Aéronautique d'un coup d'oeil ! - Copyright ORBIFLY Décembre 2007 - Disclaimer

ORBIFLY MET'MAP TEAM :

Programmation & Développement : Alexandra Zaïnal
Conception & Développement : Baudouin d'Aumeries
Co-Programmation & Développement : Marc-Olivier Méhu
Soutien technique & logistique : Manuel Goepfert

Contact : metmap@orbifly.com




SOURCES & CREDITS :

   NOAA